Accueil
METAR-TAF:

METAR-TAF

Aéroports :

Akulivik, Québec, Canada

latitude: 60-49N, longitude: 078-09W, altitude: 20 m

Observation

Le bulletin a été fait il y a 4 heures et 21 minutes, à 22:00 UTC
Vent 10 kt de sud-est
Température -28°C
Humidité 68%
Pression 1020 hPa
Visibilité: 24.1 km
Quelques nuages à une hauteur de 2500 ft
Nuages épars à une hauteur de 22000 ft

METAR: CYKO 222200Z 14010KT 15SM FEW025 SCT220 M28/M32 A3012 RMK SC1CI2 LAST OB NEXT / 231300 UTC PRESFR SLP203

Heure: 21:21 (02:21 UTC)


TAF: absent

Observations et prévisions météorologiques de plus de 4000 aéroports (messages METAR et TAF).

Les stations disponibles sont représentées par des disques jaunes et rouges sur la carte.

Passer la souris dessus pour voir le nom de la station.

Cliquer dessus pour voir les observations et prévisions météorologiques.

Pour changer de carte: cliquez sur les boutons verts avec une croix noire pour zoomer, sur le bouton vert avec un tiret pour effectuer un zoom arrière, ou sur les flèches vertes pour les cartes adjacentes.


METAR-TAF: